createdAt,value
2019-03-29T00:16:38.345Z,915.46
2019-03-29T00:17:38.284Z,915.45
2019-03-29T00:18:38.276Z,915.57
2019-03-29T00:19:38.262Z,915.60
2019-03-29T00:20:38.253Z,915.70
2019-03-29T00:21:39.117Z,915.73
2019-03-29T00:22:38.282Z,915.79
2019-03-29T00:23:38.223Z,915.82
2019-03-29T00:24:38.212Z,915.75
2019-03-29T00:25:38.198Z,915.74
2019-03-29T00:26:38.192Z,915.71
2019-03-29T00:27:38.177Z,915.73
2019-03-29T00:28:38.269Z,915.67
2019-03-29T00:29:38.169Z,915.72
2019-03-29T00:30:38.148Z,915.82
2019-03-29T00:31:38.139Z,915.82
2019-03-29T00:32:38.125Z,915.88
2019-03-29T00:33:38.113Z,915.99
2019-03-29T00:34:38.152Z,916.06
2019-03-29T00:35:38.097Z,916.17
2019-03-29T00:36:38.084Z,916.21
2019-03-29T00:37:38.077Z,916.26
2019-03-29T00:39:38.047Z,916.38
2019-03-29T00:40:38.138Z,916.37
2019-03-29T00:41:38.029Z,916.43
2019-03-29T00:42:38.028Z,916.55
2019-03-29T00:43:38.019Z,916.59
2019-03-29T00:44:38.010Z,916.61
2019-03-29T00:45:37.983Z,916.69
2019-03-29T00:46:38.109Z,916.78
2019-03-29T00:47:37.962Z,916.83
2019-03-29T00:48:37.951Z,916.93
2019-03-29T00:49:37.945Z,917.02
2019-03-29T00:50:37.940Z,917.16
2019-03-29T00:51:37.922Z,917.27
2019-03-29T00:52:38.010Z,917.35
2019-03-29T00:53:37.897Z,917.43
2019-03-29T00:54:37.887Z,917.52
2019-03-29T00:55:37.877Z,917.54
2019-03-29T00:56:38.968Z,917.67
2019-03-29T00:57:37.854Z,917.75
2019-03-29T00:58:37.896Z,917.83
2019-03-29T00:59:37.831Z,917.87
2019-03-29T01:00:37.824Z,917.95
2019-03-29T01:01:37.815Z,918.06
2019-03-29T01:02:37.803Z,918.04
2019-03-29T01:06:39.125Z,917.81
2019-03-29T01:07:37.746Z,917.73
2019-03-29T01:08:38.121Z,917.57
2019-03-29T01:09:37.730Z,917.48
2019-03-29T01:10:37.763Z,917.50
2019-03-29T01:11:37.709Z,917.58
2019-03-29T01:12:37.699Z,917.72
2019-03-29T01:13:37.681Z,917.72
2019-03-29T01:14:37.672Z,917.84
2019-03-29T01:15:37.663Z,917.85
2019-03-29T01:16:37.699Z,917.87
2019-03-29T01:17:37.641Z,917.92
2019-03-29T01:18:38.085Z,917.91
2019-03-29T01:19:37.622Z,917.91
2019-03-29T01:20:37.614Z,917.87
2019-03-29T01:21:37.752Z,917.89
2019-03-29T01:22:37.589Z,917.81
2019-03-29T01:23:37.584Z,917.73
2019-03-29T01:24:37.572Z,917.65
2019-03-29T01:25:37.558Z,917.63
2019-03-29T01:26:37.542Z,917.52
2019-03-29T01:27:37.588Z,917.54
2019-03-29T01:28:38.557Z,917.60
2019-03-29T01:29:37.513Z,917.65
2019-03-29T01:30:37.509Z,917.66
2019-03-29T01:31:37.496Z,917.56
2019-03-29T01:32:37.488Z,917.59
2019-03-29T01:33:37.525Z,917.73
2019-03-29T01:34:37.464Z,917.51
2019-03-29T01:35:37.454Z,917.30
2019-03-29T01:36:37.440Z,917.37
2019-03-29T01:37:37.428Z,917.30
2019-03-29T01:38:37.448Z,917.22
2019-03-29T01:39:37.562Z,917.29
2019-03-29T01:40:37.399Z,917.35
2019-03-29T01:41:37.384Z,917.22
2019-03-29T01:42:37.378Z,917.15
2019-03-29T01:43:37.369Z,917.21
2019-03-29T01:44:37.357Z,917.37
2019-03-29T01:45:37.453Z,917.39
2019-03-29T01:46:38.085Z,917.49
2019-03-29T01:47:37.324Z,917.52
2019-03-29T01:48:37.315Z,917.49
2019-03-29T01:49:37.305Z,917.27
2019-03-29T01:50:37.294Z,917.44
2019-03-29T01:51:37.328Z,917.55
2019-03-29T01:52:37.270Z,917.22
2019-03-29T01:53:37.983Z,917.27
2019-03-29T01:54:37.247Z,917.30
2019-03-29T01:55:37.253Z,917.27
2019-03-29T01:56:37.232Z,917.35
2019-03-29T01:57:37.364Z,917.31
2019-03-29T01:58:37.206Z,917.33
2019-03-29T01:59:37.191Z,917.16
2019-03-29T02:00:37.187Z,917.21
2019-03-29T02:01:37.180Z,917.21
2019-03-29T02:02:37.162Z,917.14
2019-03-29T02:03:37.203Z,917.19
2019-03-29T02:04:37.143Z,917.19
2019-03-29T02:05:37.131Z,917.25
2019-03-29T02:06:37.122Z,917.18
2019-03-29T02:07:38.083Z,917.15
2019-03-29T02:08:37.883Z,917.08
2019-03-29T02:09:37.189Z,917.29
2019-03-29T02:10:37.084Z,917.05
2019-03-29T02:11:37.065Z,917.05
2019-03-29T02:12:37.063Z,917.14
2019-03-29T02:13:37.059Z,917.11
2019-03-29T02:14:37.036Z,917.18
2019-03-29T02:15:37.920Z,917.13
2019-03-29T02:16:37.013Z,917.06
2019-03-29T02:17:37.005Z,916.92
2019-03-29T02:18:36.991Z,916.96
2019-03-29T02:19:36.981Z,916.91
2019-03-29T02:20:36.974Z,916.95
2019-03-29T02:21:37.015Z,916.90
2019-03-29T02:22:37.102Z,916.94
2019-03-29T02:23:36.939Z,916.82
2019-03-29T02:24:36.928Z,916.81
2019-03-29T02:25:36.916Z,916.78
2019-03-29T02:26:36.906Z,916.92
2019-03-29T02:27:36.952Z,916.76
2019-03-29T02:28:36.883Z,916.77
2019-03-29T02:29:37.187Z,916.84
2019-03-29T02:30:36.866Z,916.86
2019-03-29T02:31:36.862Z,916.77
2019-03-29T02:32:36.850Z,916.83
2019-03-29T02:33:36.983Z,916.84
2019-03-29T02:34:36.823Z,916.87
2019-03-29T02:35:38.438Z,916.87
2019-03-29T02:36:36.799Z,916.91
2019-03-29T02:37:36.792Z,916.95
2019-03-29T02:38:54.231Z,917.02
2019-03-29T02:40:01.639Z,916.88
2019-03-29T02:41:01.622Z,916.80
2019-03-29T02:42:01.607Z,916.84
2019-03-29T02:43:01.600Z,916.85
2019-03-29T02:44:01.593Z,916.86
2019-03-29T02:45:03.400Z,916.90
2019-03-29T02:46:01.573Z,916.98
2019-03-29T02:47:01.563Z,916.95
2019-03-29T02:48:01.547Z,916.97
2019-03-29T02:49:01.537Z,916.96
2019-03-29T02:50:01.525Z,917.00
2019-03-29T02:51:01.963Z,917.02
2019-03-29T02:52:01.506Z,917.01
2019-03-29T02:53:01.500Z,917.08
2019-03-29T02:54:01.478Z,917.07
2019-03-29T02:55:01.481Z,917.06
2019-03-29T02:56:01.460Z,917.11
2019-03-29T02:57:01.502Z,917.10
2019-03-29T02:58:01.438Z,917.12
2019-03-29T02:59:01.427Z,917.20
2019-03-29T03:00:01.419Z,917.25
2019-03-29T03:01:01.403Z,917.08
2019-03-29T03:02:01.398Z,917.11
2019-03-29T03:03:01.490Z,917.08
2019-03-29T03:04:01.379Z,917.00
2019-03-29T03:05:01.372Z,917.01
2019-03-29T03:06:01.356Z,916.98
2019-03-29T03:07:01.339Z,916.90
2019-03-29T03:08:01.329Z,916.98
2019-03-29T03:09:13.358Z,916.88
2019-03-29T03:10:02.403Z,916.82
2019-03-29T03:11:01.296Z,916.93
2019-03-29T03:12:01.286Z,916.84
2019-03-29T03:13:01.275Z,916.92
2019-03-29T03:14:01.260Z,916.81
2019-03-29T03:15:01.305Z,916.80
2019-03-29T03:16:01.244Z,916.79
2019-03-29T03:17:01.240Z,916.83
2019-03-29T03:18:01.221Z,916.76
2019-03-29T03:19:01.230Z,916.74
2019-03-29T03:20:01.201Z,916.81
2019-03-29T03:21:01.248Z,916.77
2019-03-29T03:22:01.181Z,916.65
2019-03-29T03:23:01.175Z,916.68
2019-03-29T03:24:01.164Z,916.71
2019-03-29T03:25:01.164Z,916.68
2019-03-29T03:26:01.135Z,916.63
2019-03-29T03:27:01.284Z,916.66
2019-03-29T03:28:01.147Z,916.61
2019-03-29T03:29:01.104Z,916.58
2019-03-29T03:30:01.137Z,916.60
2019-03-29T03:31:01.104Z,916.51
2019-03-29T03:32:01.079Z,916.50
2019-03-29T03:33:01.113Z,916.51
2019-03-29T03:34:01.069Z,916.51
2019-03-29T03:35:01.100Z,916.52
2019-03-29T03:36:01.040Z,916.55
2019-03-29T03:37:01.017Z,916.53
2019-03-29T03:38:01.027Z,916.48
2019-03-29T03:39:01.105Z,916.52
2019-03-29T03:40:00.991Z,916.50
2019-03-29T03:41:00.976Z,916.46
2019-03-29T03:42:00.965Z,916.42
2019-03-29T03:43:00.953Z,916.39
2019-03-29T03:44:00.950Z,916.38
2019-03-29T03:45:01.086Z,916.35
2019-03-29T03:46:00.928Z,916.37
2019-03-29T03:47:00.915Z,916.32
2019-03-29T03:48:00.904Z,916.29
2019-03-29T03:49:00.991Z,916.31
2019-03-29T03:50:01.657Z,916.30
2019-03-29T03:51:00.927Z,916.37
2019-03-29T03:52:00.861Z,916.44
2019-03-29T03:53:00.851Z,916.40
2019-03-29T03:54:00.842Z,916.40
2019-03-29T03:55:00.835Z,916.40
2019-03-29T03:56:00.820Z,916.37
2019-03-29T03:57:00.861Z,916.36
2019-03-29T03:58:00.801Z,916.36
2019-03-29T03:59:00.790Z,916.37
2019-03-29T04:00:00.785Z,916.32
2019-03-29T04:01:00.776Z,916.31
2019-03-29T04:02:00.759Z,916.34
2019-03-29T04:03:00.901Z,916.31
2019-03-29T04:04:00.744Z,916.37
2019-03-29T04:05:00.784Z,916.34
2019-03-29T04:06:00.716Z,916.36
2019-03-29T04:07:00.704Z,916.34
2019-03-29T04:08:00.696Z,916.36
2019-03-29T04:09:00.734Z,916.34
2019-03-29T04:10:00.680Z,916.33
2019-03-29T04:11:00.661Z,916.37
2019-03-29T04:12:00.655Z,916.32
2019-03-29T04:13:00.640Z,916.33
2019-03-29T04:14:00.632Z,916.35
2019-03-29T04:15:00.722Z,916.38
2019-03-29T04:16:00.610Z,916.38
2019-03-29T04:17:00.600Z,916.42
2019-03-29T04:18:00.593Z,916.50
2019-03-29T04:19:00.580Z,916.53
2019-03-29T04:20:00.715Z,916.57
2019-03-29T04:21:01.761Z,916.58
2019-03-29T04:22:00.624Z,916.54
2019-03-29T04:23:00.541Z,916.54
2019-03-29T04:24:00.527Z,916.56
2019-03-29T04:25:00.528Z,916.49
2019-03-29T04:26:00.507Z,916.52
2019-03-29T04:27:00.548Z,916.48
2019-03-29T04:28:00.480Z,916.49
2019-03-29T04:29:04.536Z,916.48
2019-03-29T04:30:00.854Z,916.50
2019-03-29T04:31:00.462Z,916.46
2019-03-29T04:32:00.437Z,916.45
2019-03-29T04:33:00.477Z,916.39
2019-03-29T04:34:00.418Z,916.38
2019-03-29T04:35:00.493Z,916.29
2019-03-29T04:36:00.403Z,916.22
2019-03-29T04:37:00.388Z,916.12
2019-03-29T04:38:00.378Z,916.07
2019-03-29T04:39:00.520Z,915.98
2019-03-29T04:40:07.547Z,915.96
2019-03-29T04:41:25.215Z,915.94
2019-03-29T04:42:25.151Z,915.91
2019-03-29T04:43:25.136Z,915.92
2019-03-29T04:44:25.179Z,915.93
2019-03-29T04:45:25.114Z,915.94
2019-03-29T04:46:25.117Z,915.95
2019-03-29T04:47:25.093Z,915.98
2019-03-29T04:48:25.085Z,915.97
2019-03-29T04:49:25.081Z,916.02
2019-03-29T04:50:25.109Z,916.03
2019-03-29T04:51:25.048Z,916.01
2019-03-29T04:52:25.037Z,916.02
2019-03-29T04:53:25.031Z,915.91
2019-03-29T04:54:25.026Z,915.88
2019-03-29T04:55:25.012Z,915.77
2019-03-29T04:56:25.150Z,915.74
2019-03-29T04:57:25.031Z,915.73
2019-03-29T04:58:24.977Z,915.61
2019-03-29T04:59:24.964Z,915.54
2019-03-29T05:00:24.959Z,915.45
2019-03-29T05:01:24.947Z,915.32
2019-03-29T05:02:24.982Z,915.20
2019-03-29T05:03:24.921Z,915.10
2019-03-29T05:04:24.919Z,915.08
2019-03-29T05:05:24.905Z,915.20
2019-03-29T05:06:24.885Z,915.10
2019-03-29T05:07:24.883Z,915.18
2019-03-29T05:08:24.920Z,915.26
2019-03-29T05:09:24.856Z,915.33
2019-03-29T05:10:24.844Z,915.36
2019-03-29T05:11:24.831Z,915.35
2019-03-29T05:12:24.824Z,915.42
2019-03-29T05:13:24.817Z,915.44
2019-03-29T05:14:24.952Z,915.48
2019-03-29T05:15:24.792Z,915.55
2019-03-29T05:16:24.785Z,915.66
2019-03-29T05:17:24.776Z,915.70
2019-03-29T05:18:24.763Z,915.71
2019-03-29T05:19:24.751Z,915.76
2019-03-29T05:20:24.794Z,915.77
2019-03-29T05:21:24.732Z,915.85
2019-03-29T05:22:24.725Z,915.88
2019-03-29T05:23:24.715Z,915.91
2019-03-29T05:24:24.702Z,915.94
2019-03-29T05:25:24.693Z,915.88
2019-03-29T05:26:25.627Z,915.91
2019-03-29T05:27:24.667Z,915.92
2019-03-29T05:28:24.660Z,915.95
2019-03-29T05:29:24.644Z,915.99
2019-03-29T05:30:24.637Z,915.99
2019-03-29T05:31:24.629Z,916.08
2019-03-29T05:32:24.764Z,916.13
2019-03-29T05:33:24.602Z,916.14
2019-03-29T05:34:24.602Z,916.15
2019-03-29T05:35:24.593Z,916.13
2019-03-29T05:36:24.577Z,916.16
2019-03-29T05:37:24.568Z,916.19
2019-03-29T05:38:24.604Z,916.17
2019-03-29T05:39:24.545Z,916.20
2019-03-29T05:40:34.819Z,916.22
2019-03-29T05:41:25.620Z,916.22
2019-03-29T05:42:24.511Z,916.23
2019-03-29T05:43:24.503Z,916.29
2019-03-29T05:44:24.545Z,916.29
2019-03-29T05:45:24.483Z,916.33
2019-03-29T05:46:24.472Z,916.35
2019-03-29T05:47:24.464Z,916.41
2019-03-29T05:48:24.448Z,916.44
2019-03-29T05:49:24.445Z,916.44
2019-03-29T05:50:24.631Z,916.52
2019-03-29T05:51:24.423Z,916.56
2019-03-29T05:52:24.456Z,916.59
2019-03-29T05:53:24.404Z,916.65
2019-03-29T05:54:24.390Z,916.70
2019-03-29T05:55:32.502Z,916.79
2019-03-29T05:56:49.286Z,916.85
2019-03-29T05:57:49.275Z,917.01
2019-03-29T05:58:49.266Z,917.03
2019-03-29T05:59:49.253Z,917.12
2019-03-29T06:00:49.246Z,917.12
2019-03-29T06:01:49.330Z,917.15
2019-03-29T06:02:49.226Z,917.16
2019-03-29T06:03:49.208Z,917.14
2019-03-29T06:04:49.197Z,917.16
2019-03-29T06:05:49.193Z,917.17
2019-03-29T06:06:49.177Z,917.23
2019-03-29T06:07:49.327Z,917.23
2019-03-29T06:08:49.159Z,917.28
2019-03-29T06:09:49.148Z,917.34
2019-03-29T06:10:49.793Z,917.43
2019-03-29T06:11:49.126Z,917.47
2019-03-29T06:12:49.121Z,917.57
2019-03-29T06:13:49.207Z,917.46
2019-03-29T06:14:49.095Z,917.48
2019-03-29T06:15:49.083Z,917.40
2019-03-29T06:16:49.068Z,917.45
2019-03-29T06:17:49.309Z,917.63
2019-03-29T06:18:49.045Z,917.59
2019-03-29T06:19:49.144Z,917.77
2019-03-29T06:20:49.030Z,917.77
2019-03-29T06:21:49.020Z,917.80
2019-03-29T06:22:49.007Z,917.86
2019-03-29T06:23:48.993Z,917.83
2019-03-29T06:24:48.980Z,918.07
2019-03-29T06:25:49.124Z,918.03
2019-03-29T06:26:48.958Z,918.09
2019-03-29T06:27:48.945Z,918.14
2019-03-29T06:28:48.938Z,918.26
2019-03-29T06:29:48.925Z,918.16
2019-03-29T06:30:48.914Z,918.45
2019-03-29T06:31:49.002Z,918.36
2019-03-29T06:32:48.897Z,918.45
2019-03-29T06:33:48.896Z,918.46
2019-03-29T06:34:52.927Z,918.72
2019-03-29T06:35:49.078Z,918.65
2019-03-29T06:36:51.506Z,918.82
2019-03-29T06:37:51.949Z,918.62
2019-03-29T06:38:48.836Z,918.59
2019-03-29T06:39:48.819Z,918.55
2019-03-29T06:41:01.808Z,918.50
2019-03-29T06:42:13.769Z,918.53
2019-03-29T06:43:13.609Z,918.58
2019-03-29T06:44:13.597Z,918.65
2019-03-29T06:45:13.588Z,918.67
2019-03-29T06:46:13.574Z,918.69
2019-03-29T06:47:13.563Z,918.71
2019-03-29T06:48:13.606Z,918.73
2019-03-29T06:49:13.547Z,918.65
2019-03-29T06:50:14.269Z,918.71
2019-03-29T06:51:13.526Z,918.78
2019-03-29T06:52:13.539Z,918.79
2019-03-29T06:53:13.503Z,918.81
2019-03-29T06:54:13.542Z,918.79
2019-03-29T06:55:13.482Z,918.87
2019-03-29T06:56:13.470Z,918.96
2019-03-29T06:57:13.458Z,919.07
2019-03-29T06:58:13.452Z,919.10
2019-03-29T06:59:13.437Z,919.22
2019-03-29T07:00:13.578Z,919.26
2019-03-29T07:01:13.418Z,919.44
2019-03-29T07:02:13.407Z,919.49
2019-03-29T07:03:13.392Z,919.45
2019-03-29T07:04:13.382Z,919.38
2019-03-29T07:05:13.398Z,919.38
2019-03-29T07:06:13.466Z,919.33
2019-03-29T07:07:13.354Z,919.33
2019-03-29T07:08:13.342Z,919.33
2019-03-29T07:09:13.332Z,919.30
2019-03-29T07:10:13.318Z,919.34
2019-03-29T07:11:17.618Z,919.29
2019-03-29T07:12:13.405Z,919.21
2019-03-29T07:13:13.293Z,919.24
2019-03-29T07:14:13.284Z,919.07
2019-03-29T07:15:13.271Z,919.07
2019-03-29T07:16:13.257Z,918.97
2019-03-29T07:17:13.244Z,918.94
2019-03-29T07:18:13.485Z,918.88
2019-03-29T07:19:38.049Z,918.88
2019-03-29T07:20:38.032Z,918.77
2019-03-29T07:21:38.018Z,918.72
2019-03-29T07:22:38.009Z,918.72
2019-03-29T07:23:38.048Z,918.76
2019-03-29T07:24:37.979Z,918.74
2019-03-29T07:25:37.977Z,918.64
2019-03-29T07:26:37.961Z,918.58
2019-03-29T07:27:44.716Z,918.54
2019-03-29T07:28:39.098Z,918.52
2019-03-29T07:29:37.946Z,918.53
2019-03-29T07:30:37.922Z,918.57
2019-03-29T07:31:37.908Z,918.61
2019-03-29T07:32:37.894Z,918.67
2019-03-29T07:33:37.888Z,918.64
2019-03-29T07:34:37.973Z,918.63
2019-03-29T07:35:37.862Z,918.68
2019-03-29T07:36:37.849Z,918.66
2019-03-29T07:37:37.846Z,918.65
2019-03-29T07:38:37.833Z,918.69
2019-03-29T07:39:37.828Z,918.72
2019-03-29T07:40:37.964Z,918.77
2019-03-29T07:41:37.814Z,918.79
2019-03-29T07:42:37.792Z,918.82
2019-03-29T07:43:37.777Z,918.84
2019-03-29T07:44:37.767Z,918.85
2019-03-29T07:45:37.754Z,918.86
2019-03-29T07:46:37.797Z,918.85
2019-03-29T07:47:37.735Z,918.86
2019-03-29T07:48:40.413Z,918.81
2019-03-29T07:49:37.709Z,918.79
2019-03-29T07:50:37.697Z,918.90
2019-03-29T07:51:37.686Z,918.88
2019-03-29T07:52:37.733Z,918.84
2019-03-29T07:53:37.671Z,918.82
2019-03-29T07:54:37.660Z,918.87
2019-03-29T07:55:37.734Z,918.82
2019-03-29T07:56:37.634Z,918.83
2019-03-29T07:57:37.630Z,918.79
2019-03-29T07:58:37.766Z,918.82
2019-03-29T07:59:37.605Z,918.78
2019-03-29T08:00:37.589Z,918.83
2019-03-29T08:01:37.598Z,918.83
2019-03-29T08:02:37.571Z,918.86
2019-03-29T08:03:37.563Z,918.90
2019-03-29T08:04:37.602Z,919.00
2019-03-29T08:05:37.535Z,918.99
2019-03-29T08:06:38.362Z,918.98
2019-03-29T08:07:37.523Z,919.07
2019-03-29T08:08:37.511Z,919.12
2019-03-29T08:10:37.533Z,919.20
2019-03-29T08:11:46.078Z,919.21
2019-03-29T08:13:02.279Z,919.22
2019-03-29T08:14:02.274Z,919.20
2019-03-29T08:15:02.255Z,919.16
2019-03-29T08:16:02.349Z,919.21
2019-03-29T08:17:02.234Z,919.13
2019-03-29T08:18:02.229Z,919.12
2019-03-29T08:19:02.235Z,919.16
2019-03-29T08:20:36.548Z,919.18
2019-03-29T08:21:03.345Z,919.19
2019-03-29T08:22:02.183Z,919.25
2019-03-29T08:23:02.181Z,919.23
2019-03-29T08:24:02.165Z,919.22
2019-03-29T08:25:02.154Z,919.20
2019-03-29T08:26:02.140Z,919.28
2019-03-29T08:27:02.232Z,919.23
2019-03-29T08:28:02.117Z,919.19
2019-03-29T08:29:02.107Z,919.17
2019-03-29T08:30:02.100Z,919.13
2019-03-29T08:31:02.086Z,919.07
2019-03-29T08:32:02.084Z,919.02
2019-03-29T08:33:02.118Z,918.93
2019-03-29T08:34:02.063Z,918.97
2019-03-29T08:35:02.045Z,918.93
2019-03-29T08:36:02.040Z,919.00
2019-03-29T08:37:02.021Z,918.99
2019-03-29T08:38:02.011Z,918.99
2019-03-29T08:39:02.048Z,919.00
2019-03-29T08:40:01.994Z,918.97
2019-03-29T08:41:01.979Z,918.98
2019-03-29T08:42:01.968Z,918.94
2019-03-29T08:43:01.959Z,918.92
2019-03-29T08:44:01.974Z,918.88
2019-03-29T08:45:01.991Z,918.91
2019-03-29T08:46:01.932Z,918.84
2019-03-29T08:47:01.921Z,918.84
2019-03-29T08:48:02.381Z,918.87
2019-03-29T08:49:01.898Z,918.83
2019-03-29T08:50:01.889Z,918.82
2019-03-29T08:51:01.925Z,918.79
2019-03-29T08:52:01.864Z,918.79
2019-03-29T08:53:01.850Z,918.81
2019-03-29T08:54:01.849Z,918.79
2019-03-29T08:55:01.837Z,918.77
2019-03-29T08:56:01.821Z,918.79
2019-03-29T08:57:01.912Z,918.72
2019-03-29T08:58:01.801Z,918.72
2019-03-29T08:59:01.787Z,918.70
2019-03-29T09:00:01.776Z,918.69
2019-03-29T09:01:01.767Z,918.63
2019-03-29T09:02:01.760Z,918.65
2019-03-29T09:03:01.795Z,918.61
2019-03-29T09:04:05.634Z,918.64
2019-03-29T09:05:01.722Z,918.63
2019-03-29T09:06:01.713Z,918.66
2019-03-29T09:07:01.702Z,918.62
2019-03-29T09:08:01.693Z,918.64
2019-03-29T09:09:01.730Z,918.66
2019-03-29T09:10:01.674Z,918.69
2019-03-29T09:11:01.664Z,918.72
2019-03-29T09:12:13.714Z,918.77
2019-03-29T09:13:26.454Z,918.89
2019-03-29T09:14:26.493Z,918.96
2019-03-29T09:15:26.438Z,918.94
2019-03-29T09:16:26.423Z,918.99
2019-03-29T09:17:26.410Z,919.05
2019-03-29T09:18:26.452Z,919.08
2019-03-29T09:19:26.389Z,919.11
2019-03-29T09:20:26.427Z,919.13
2019-03-29T09:21:26.368Z,919.11
2019-03-29T09:22:26.353Z,919.15
2019-03-29T09:23:29.817Z,919.16
2019-03-29T09:24:26.375Z,919.17
2019-03-29T09:25:26.328Z,919.15
2019-03-29T09:26:26.417Z,919.21
2019-03-29T09:27:26.303Z,919.19
2019-03-29T09:28:26.293Z,919.19
2019-03-29T09:29:26.285Z,919.20
2019-03-29T09:30:26.268Z,919.25
2019-03-29T09:31:26.257Z,919.18
2019-03-29T09:32:26.298Z,919.18
2019-03-29T09:33:26.248Z,919.20
2019-03-29T09:34:28.868Z,919.21
2019-03-29T09:35:26.218Z,919.22
2019-03-29T09:36:26.204Z,919.23
2019-03-29T09:37:26.189Z,919.21
2019-03-29T09:38:26.230Z,919.24
2019-03-29T09:39:26.170Z,919.22
2019-03-29T09:40:26.164Z,919.30
2019-03-29T09:41:26.150Z,919.23
2019-03-29T09:42:29.652Z,919.21
2019-03-29T09:43:26.732Z,919.22
2019-03-29T09:44:26.165Z,919.26
2019-03-29T09:45:26.110Z,919.23
2019-03-29T09:46:26.093Z,919.29
2019-03-29T09:47:26.089Z,919.34
2019-03-29T09:48:26.070Z,919.37
2019-03-29T09:49:26.060Z,919.43
2019-03-29T09:50:26.149Z,919.45
2019-03-29T09:51:26.081Z,919.48
2019-03-29T09:52:26.031Z,919.51
2019-03-29T09:53:26.019Z,919.56
2019-03-29T09:54:26.006Z,919.52
2019-03-29T09:55:25.995Z,919.52
2019-03-29T09:56:38.067Z,919.54
2019-03-29T09:57:50.789Z,919.48
2019-03-29T09:58:50.775Z,919.41
2019-03-29T09:59:50.848Z,919.36
2019-03-29T10:00:50.758Z,919.28
2019-03-29T10:01:53.868Z,919.29
2019-03-29T10:02:50.762Z,919.25
2019-03-29T10:03:50.727Z,919.28
2019-03-29T10:04:50.713Z,919.28
2019-03-29T10:05:50.707Z,919.20
2019-03-29T10:06:50.694Z,919.21
2019-03-29T10:07:50.781Z,919.22
2019-03-29T10:08:53.274Z,919.27
2019-03-29T10:09:50.670Z,919.29
2019-03-29T10:10:50.649Z,919.29
2019-03-29T10:11:50.641Z,919.36
2019-03-29T10:12:50.647Z,919.38
2019-03-29T10:13:50.671Z,919.36
2019-03-29T10:14:50.611Z,919.34
2019-03-29T10:15:51.476Z,919.32
2019-03-29T10:16:50.589Z,919.30
2019-03-29T10:17:50.580Z,919.27
2019-03-29T10:18:50.569Z,919.18
2019-03-29T10:19:50.667Z,919.18
2019-03-29T10:20:50.546Z,919.06
2019-03-29T10:21:50.537Z,918.95
2019-03-29T10:22:50.536Z,918.89
2019-03-29T10:23:50.520Z,918.90
2019-03-29T10:24:50.510Z,918.92
2019-03-29T10:25:50.597Z,918.96
2019-03-29T10:26:50.484Z,918.96
2019-03-29T10:27:50.474Z,918.98
2019-03-29T10:28:50.463Z,918.96
2019-03-29T10:29:50.453Z,918.93
2019-03-29T10:30:50.446Z,918.91
2019-03-29T10:31:50.545Z,918.88
2019-03-29T10:32:50.417Z,918.82
2019-03-29T10:33:50.412Z,918.85
2019-03-29T10:34:50.402Z,918.81
2019-03-29T10:35:52.514Z,918.82
2019-03-29T10:36:50.378Z,918.82
2019-03-29T10:37:50.419Z,918.82
2019-03-29T10:38:50.363Z,918.86
2019-03-29T10:39:50.346Z,918.86
2019-03-29T10:40:50.333Z,918.86
2019-03-29T10:41:50.325Z,918.94
2019-03-29T10:42:57.564Z,918.94
2019-03-29T10:51:50.216Z,919.23
2019-03-29T10:52:50.379Z,919.23
2019-03-29T10:53:50.199Z,919.27
2019-03-29T10:54:50.233Z,919.30
2019-03-29T10:55:50.229Z,919.28
2019-03-29T10:56:50.167Z,919.34
2019-03-29T10:57:50.156Z,919.34
2019-03-29T10:58:50.145Z,919.33
2019-03-29T10:59:50.139Z,919.36
2019-03-29T11:00:50.126Z,919.38
2019-03-29T11:01:50.212Z,919.44
2019-03-29T11:02:50.102Z,919.42
2019-03-29T11:03:50.099Z,919.40
2019-03-29T11:04:50.081Z,919.39
2019-03-29T11:05:50.074Z,919.38
2019-03-29T11:06:50.061Z,919.39
2019-03-29T11:07:50.106Z,919.37
2019-03-29T11:08:50.035Z,919.40
2019-03-29T11:09:50.027Z,919.39
2019-03-29T11:10:50.015Z,919.42
2019-03-29T11:11:50.001Z,919.40
2019-03-29T11:12:49.997Z,919.39
2019-03-29T11:13:50.087Z,919.41
2019-03-29T11:14:49.982Z,919.44
2019-03-29T11:15:49.963Z,919.45
2019-03-29T11:16:49.957Z,919.47
2019-03-29T11:17:49.944Z,919.45
2019-03-29T11:18:49.932Z,919.46
2019-03-29T11:19:49.971Z,919.48
2019-03-29T11:20:49.913Z,919.50
2019-03-29T11:21:49.899Z,919.54
2019-03-29T11:22:49.895Z,919.53
2019-03-29T11:23:49.881Z,919.61
2019-03-29T11:24:49.865Z,919.61
2019-03-29T11:25:49.907Z,919.63
2019-03-29T11:26:49.847Z,919.61
2019-03-29T11:27:49.836Z,919.63
2019-03-29T11:28:49.822Z,919.62
2019-03-29T11:29:49.818Z,919.63
2019-03-29T11:30:49.801Z,919.62
2019-03-29T11:31:49.839Z,919.65
2019-03-29T11:32:49.781Z,919.61
2019-03-29T11:33:49.771Z,919.66
2019-03-29T11:34:49.756Z,919.59
2019-03-29T11:35:49.749Z,919.63
2019-03-29T11:36:52.425Z,919.64
2019-03-29T11:37:49.828Z,919.67
2019-03-29T11:38:49.720Z,919.64
2019-03-29T11:39:49.709Z,919.64
2019-03-29T11:40:49.694Z,919.65
2019-03-29T11:41:49.685Z,919.66
2019-03-29T11:42:49.673Z,919.66
2019-03-29T11:43:49.709Z,919.66
2019-03-29T11:44:49.655Z,919.73
2019-03-29T11:45:49.645Z,919.77
2019-03-29T11:46:49.634Z,919.78
2019-03-29T11:47:49.622Z,919.81
2019-03-29T11:48:49.610Z,919.82
2019-03-29T11:49:52.805Z,919.84
2019-03-29T11:50:49.589Z,919.86
2019-03-29T11:51:49.576Z,919.80
2019-03-29T11:52:49.568Z,919.79
2019-03-29T11:53:51.089Z,919.80
2019-03-29T11:54:49.549Z,919.77
2019-03-29T11:55:49.641Z,919.72
2019-03-29T11:56:49.529Z,919.75
2019-03-29T11:57:49.516Z,919.78
2019-03-29T11:58:49.502Z,919.78
2019-03-29T11:59:49.498Z,919.80
2019-03-29T12:00:49.485Z,919.77
2019-03-29T12:01:49.523Z,919.75
2019-03-29T12:02:49.467Z,919.77
2019-03-29T12:03:49.454Z,919.72
2019-03-29T12:04:49.441Z,919.69
2019-03-29T12:05:49.432Z,919.66
2019-03-29T12:06:49.425Z,919.70
2019-03-29T12:07:49.518Z,919.59
2019-03-29T12:08:49.403Z,919.53
2019-03-29T12:09:49.393Z,919.45
2019-03-29T12:10:49.381Z,919.38
2019-03-29T12:11:49.441Z,919.29
2019-03-29T12:12:49.362Z,919.21
2019-03-29T12:13:49.400Z,919.23
2019-03-29T12:14:49.336Z,919.28
2019-03-29T12:15:49.331Z,919.34
2019-03-29T12:16:49.318Z,919.23
2019-03-29T12:17:49.307Z,919.16
2019-03-29T12:18:49.293Z,919.16
2019-03-29T12:19:49.337Z,919.00
2019-03-29T12:20:49.272Z,918.91
2019-03-29T12:21:49.262Z,918.67
2019-03-29T12:22:49.256Z,918.53
2019-03-29T12:23:49.236Z,918.37
2019-03-29T12:24:49.234Z,918.32
2019-03-29T12:25:49.275Z,918.34
2019-03-29T12:26:49.210Z,918.34
2019-03-29T12:27:49.201Z,918.54
2019-03-29T12:28:49.190Z,918.60
2019-03-29T12:29:49.181Z,918.79
2019-03-29T12:30:49.165Z,918.63
2019-03-29T12:31:49.204Z,918.60
2019-03-29T12:32:49.149Z,918.60
2019-03-29T12:33:49.131Z,918.50
2019-03-29T12:34:49.120Z,918.56
2019-03-29T12:35:49.116Z,918.61
2019-03-29T12:36:49.110Z,918.69
2019-03-29T12:37:49.148Z,918.71
2019-03-29T12:38:49.091Z,918.69
2019-03-29T12:39:49.072Z,918.60
2019-03-29T12:40:49.057Z,918.53
2019-03-29T12:41:49.047Z,918.48
2019-03-29T12:42:49.041Z,918.48
2019-03-29T12:43:55.315Z,918.35
2019-03-29T12:45:13.830Z,918.46
2019-03-29T12:46:13.824Z,918.62
2019-03-29T12:47:13.819Z,918.82
2019-03-29T12:48:13.800Z,918.98
2019-03-29T12:49:13.837Z,919.10
2019-03-29T12:50:13.776Z,919.14
2019-03-29T12:51:13.768Z,919.17
2019-03-29T12:52:13.753Z,919.17
2019-03-29T12:53:13.749Z,919.30
2019-03-29T12:54:13.736Z,919.31
2019-03-29T12:55:13.776Z,919.45
2019-03-29T12:56:13.714Z,919.56
2019-03-29T12:57:13.706Z,919.65
2019-03-29T12:58:13.698Z,919.69
2019-03-29T12:59:13.689Z,919.77
2019-03-29T13:00:13.674Z,919.79
2019-03-29T13:01:13.915Z,919.77